sensor_id;sensor_type;location;lat;lon;timestamp;temperature;humidity
5419;DHT22;2732;52.092;11.556;2023-11-19T00:03:25;5.70;99.90
5419;DHT22;2732;52.092;11.556;2023-11-19T00:08:25;5.70;99.90
5419;DHT22;2732;52.092;11.556;2023-11-19T00:13:27;5.70;99.90
5419;DHT22;2732;52.092;11.556;2023-11-19T00:18:28;5.70;99.90
5419;DHT22;2732;52.092;11.556;2023-11-19T00:23:29;5.70;99.90
5419;DHT22;2732;52.092;11.556;2023-11-19T00:28:29;5.70;99.90
5419;DHT22;2732;52.092;11.556;2023-11-19T00:33:30;5.70;99.90
5419;DHT22;2732;52.092;11.556;2023-11-19T00:38:31;5.70;99.90
5419;DHT22;2732;52.092;11.556;2023-11-19T00:43:32;5.70;99.90
5419;DHT22;2732;52.092;11.556;2023-11-19T00:48:32;5.70;99.90
5419;DHT22;2732;52.092;11.556;2023-11-19T00:53:33;5.70;99.90
5419;DHT22;2732;52.092;11.556;2023-11-19T00:58:34;5.70;99.90
5419;DHT22;2732;52.092;11.556;2023-11-19T01:03:35;5.70;99.90
5419;DHT22;2732;52.092;11.556;2023-11-19T01:08:35;5.70;99.90
5419;DHT22;2732;52.092;11.556;2023-11-19T01:13:36;5.70;99.90
5419;DHT22;2732;52.092;11.556;2023-11-19T01:18:36;5.70;99.90
5419;DHT22;2732;52.092;11.556;2023-11-19T01:23:37;5.70;99.90
5419;DHT22;2732;52.092;11.556;2023-11-19T01:28:39;5.70;99.90
5419;DHT22;2732;52.092;11.556;2023-11-19T01:33:40;5.70;99.90
5419;DHT22;2732;52.092;11.556;2023-11-19T01:38:41;5.70;99.90
5419;DHT22;2732;52.092;11.556;2023-11-19T01:43:42;5.70;99.90
5419;DHT22;2732;52.092;11.556;2023-11-19T01:48:45;5.70;99.90
5419;DHT22;2732;52.092;11.556;2023-11-19T01:53:46;5.70;99.90
5419;DHT22;2732;52.092;11.556;2023-11-19T01:58:48;5.70;99.90
5419;DHT22;2732;52.092;11.556;2023-11-19T02:03:49;5.70;99.90
5419;DHT22;2732;52.092;11.556;2023-11-19T02:08:51;5.70;99.90
5419;DHT22;2732;52.092;11.556;2023-11-19T02:13:52;5.70;99.90
5419;DHT22;2732;52.092;11.556;2023-11-19T02:18:53;5.70;99.90
5419;DHT22;2732;52.092;11.556;2023-11-19T02:23:53;5.80;99.90
5419;DHT22;2732;52.092;11.556;2023-11-19T02:28:54;5.70;99.90
5419;DHT22;2732;52.092;11.556;2023-11-19T02:33:55;5.80;99.90
5419;DHT22;2732;52.092;11.556;2023-11-19T02:38:56;5.80;99.90
5419;DHT22;2732;52.092;11.556;2023-11-19T02:43:56;5.80;99.90
5419;DHT22;2732;52.092;11.556;2023-11-19T02:48:57;5.80;99.90
5419;DHT22;2732;52.092;11.556;2023-11-19T02:53:58;5.80;99.90
5419;DHT22;2732;52.092;11.556;2023-11-19T02:58:58;5.80;99.90
5419;DHT22;2732;52.092;11.556;2023-11-19T03:04:00;5.80;99.90
5419;DHT22;2732;52.092;11.556;2023-11-19T03:09:02;5.80;99.90
5419;DHT22;2732;52.092;11.556;2023-11-19T03:14:06;5.90;99.90
5419;DHT22;2732;52.092;11.556;2023-11-19T03:19:08;5.90;99.90
5419;DHT22;2732;52.092;11.556;2023-11-19T03:24:08;5.90;99.90
5419;DHT22;2732;52.092;11.556;2023-11-19T03:29:09;5.90;99.90
5419;DHT22;2732;52.092;11.556;2023-11-19T03:34:10;5.90;99.90
5419;DHT22;2732;52.092;11.556;2023-11-19T03:39:11;5.90;99.90
5419;DHT22;2732;52.092;11.556;2023-11-19T03:44:11;6.00;99.90
5419;DHT22;2732;52.092;11.556;2023-11-19T03:49:12;6.00;99.90
5419;DHT22;2732;52.092;11.556;2023-11-19T03:54:13;6.00;99.90
5419;DHT22;2732;52.092;11.556;2023-11-19T03:59:13;6.00;99.90
5419;DHT22;2732;52.092;11.556;2023-11-19T04:04:15;6.00;99.90
5419;DHT22;2732;52.092;11.556;2023-11-19T04:09:16;6.10;99.90
5419;DHT22;2732;52.092;11.556;2023-11-19T04:14:16;6.10;99.90
5419;DHT22;2732;52.092;11.556;2023-11-19T04:19:19;6.10;99.90
5419;DHT22;2732;52.092;11.556;2023-11-19T04:24:20;6.10;99.90
5419;DHT22;2732;52.092;11.556;2023-11-19T04:29:20;6.10;99.90
5419;DHT22;2732;52.092;11.556;2023-11-19T04:34:21;6.20;99.90
5419;DHT22;2732;52.092;11.556;2023-11-19T04:39:22;6.20;99.90
5419;DHT22;2732;52.092;11.556;2023-11-19T04:44:23;6.20;99.90
5419;DHT22;2732;52.092;11.556;2023-11-19T04:49:23;6.20;99.90
5419;DHT22;2732;52.092;11.556;2023-11-19T04:54:24;6.30;99.90
5419;DHT22;2732;52.092;11.556;2023-11-19T04:59:25;6.30;99.90
5419;DHT22;2732;52.092;11.556;2023-11-19T05:04:25;6.30;99.90
5419;DHT22;2732;52.092;11.556;2023-11-19T05:09:26;6.40;99.90
5419;DHT22;2732;52.092;11.556;2023-11-19T05:14:27;6.40;99.90
5419;DHT22;2732;52.092;11.556;2023-11-19T05:19:28;6.50;99.90
5419;DHT22;2732;52.092;11.556;2023-11-19T05:24:28;6.50;99.90
5419;DHT22;2732;52.092;11.556;2023-11-19T05:29:29;6.60;99.90
5419;DHT22;2732;52.092;11.556;2023-11-19T05:34:30;6.60;99.90
5419;DHT22;2732;52.092;11.556;2023-11-19T05:39:31;6.70;99.90
5419;DHT22;2732;52.092;11.556;2023-11-19T05:44:32;6.70;99.90
5419;DHT22;2732;52.092;11.556;2023-11-19T05:49:33;6.80;99.90
5419;DHT22;2732;52.092;11.556;2023-11-19T05:54:33;6.80;99.90
5419;DHT22;2732;52.092;11.556;2023-11-19T05:59:38;6.90;99.90
5419;DHT22;2732;52.092;11.556;2023-11-19T06:04:41;7.00;99.90
5419;DHT22;2732;52.092;11.556;2023-11-19T06:09:44;7.00;99.90
5419;DHT22;2732;52.092;11.556;2023-11-19T06:14:45;7.10;99.90
5419;DHT22;2732;52.092;11.556;2023-11-19T06:19:46;7.10;99.90
5419;DHT22;2732;52.092;11.556;2023-11-19T06:24:47;7.20;99.90
5419;DHT22;2732;52.092;11.556;2023-11-19T06:29:48;7.20;99.90
5419;DHT22;2732;52.092;11.556;2023-11-19T06:34:50;7.30;99.90
5419;DHT22;2732;52.092;11.556;2023-11-19T06:39:51;7.20;99.90
5419;DHT22;2732;52.092;11.556;2023-11-19T06:44:59;7.20;99.90
5419;DHT22;2732;52.092;11.556;2023-11-19T06:50:00;7.20;99.90
5419;DHT22;2732;52.092;11.556;2023-11-19T06:55:01;7.20;99.90
5419;DHT22;2732;52.092;11.556;2023-11-19T07:00:01;7.20;99.90
5419;DHT22;2732;52.092;11.556;2023-11-19T07:05:02;7.20;99.90
5419;DHT22;2732;52.092;11.556;2023-11-19T07:10:05;7.30;99.90
5419;DHT22;2732;52.092;11.556;2023-11-19T07:15:09;7.30;99.90
5419;DHT22;2732;52.092;11.556;2023-11-19T07:20:10;7.40;99.90
5419;DHT22;2732;52.092;11.556;2023-11-19T07:25:13;7.40;99.90
5419;DHT22;2732;52.092;11.556;2023-11-19T07:30:14;7.50;99.90
5419;DHT22;2732;52.092;11.556;2023-11-19T07:35:15;7.50;99.90
5419;DHT22;2732;52.092;11.556;2023-11-19T07:40:16;7.60;99.90
5419;DHT22;2732;52.092;11.556;2023-11-19T07:45:20;7.70;99.90
5419;DHT22;2732;52.092;11.556;2023-11-19T07:50:20;7.70;99.90
5419;DHT22;2732;52.092;11.556;2023-11-19T07:55:21;7.80;99.90
5419;DHT22;2732;52.092;11.556;2023-11-19T08:00:22;7.90;99.90
5419;DHT22;2732;52.092;11.556;2023-11-19T08:05:23;8.10;99.90
5419;DHT22;2732;52.092;11.556;2023-11-19T08:10:25;8.30;99.90
5419;DHT22;2732;52.092;11.556;2023-11-19T08:15:27;8.40;99.90
5419;DHT22;2732;52.092;11.556;2023-11-19T08:20:28;8.60;99.90
5419;DHT22;2732;52.092;11.556;2023-11-19T08:25:29;8.70;99.90
5419;DHT22;2732;52.092;11.556;2023-11-19T08:30:30;8.90;99.90
5419;DHT22;2732;52.092;11.556;2023-11-19T08:35:31;9.00;99.90
5419;DHT22;2732;52.092;11.556;2023-11-19T08:40:32;9.10;99.90
5419;DHT22;2732;52.092;11.556;2023-11-19T08:45:32;9.20;99.90
5419;DHT22;2732;52.092;11.556;2023-11-19T08:50:33;9.30;99.90
5419;DHT22;2732;52.092;11.556;2023-11-19T08:55:35;9.40;99.90
5419;DHT22;2732;52.092;11.556;2023-11-19T09:00:36;9.50;99.90
5419;DHT22;2732;52.092;11.556;2023-11-19T09:05:36;9.70;99.90
5419;DHT22;2732;52.092;11.556;2023-11-19T09:10:37;9.70;99.90
5419;DHT22;2732;52.092;11.556;2023-11-19T09:15:38;9.80;99.90
5419;DHT22;2732;52.092;11.556;2023-11-19T09:20:39;9.90;99.90
5419;DHT22;2732;52.092;11.556;2023-11-19T09:25:47;9.90;99.90
5419;DHT22;2732;52.092;11.556;2023-11-19T09:30:50;10.00;99.90
5419;DHT22;2732;52.092;11.556;2023-11-19T09:35:51;10.10;99.90
5419;DHT22;2732;52.092;11.556;2023-11-19T09:40:52;10.20;99.90
5419;DHT22;2732;52.092;11.556;2023-11-19T09:45:53;10.30;99.90
5419;DHT22;2732;52.092;11.556;2023-11-19T09:50:55;10.50;99.90
5419;DHT22;2732;52.092;11.556;2023-11-19T09:55:56;10.80;99.90
5419;DHT22;2732;52.092;11.556;2023-11-19T10:01:04;11.00;99.90
5419;DHT22;2732;52.092;11.556;2023-11-19T10:06:10;11.20;99.90
5419;DHT22;2732;52.092;11.556;2023-11-19T10:11:14;11.30;99.90
5419;DHT22;2732;52.092;11.556;2023-11-19T10:16:15;11.50;99.90
5419;DHT22;2732;52.092;11.556;2023-11-19T10:21:18;11.80;99.90
5419;DHT22;2732;52.092;11.556;2023-11-19T10:26:19;12.00;99.90
5419;DHT22;2732;52.092;11.556;2023-11-19T10:31:23;12.00;99.90
5419;DHT22;2732;52.092;11.556;2023-11-19T10:36:38;12.10;99.90
5419;DHT22;2732;52.092;11.556;2023-11-19T10:41:41;12.30;99.90
5419;DHT22;2732;52.092;11.556;2023-11-19T10:46:42;12.30;99.90
5419;DHT22;2732;52.092;11.556;2023-11-19T10:51:45;12.30;99.90
5419;DHT22;2732;52.092;11.556;2023-11-19T10:56:58;12.30;99.90
5419;DHT22;2732;52.092;11.556;2023-11-19T11:02:04;12.40;99.90
5419;DHT22;2732;52.092;11.556;2023-11-19T11:07:08;12.50;99.90
5419;DHT22;2732;52.092;11.556;2023-11-19T11:12:10;12.50;99.90
5419;DHT22;2732;52.092;11.556;2023-11-19T11:17:12;12.50;99.90
5419;DHT22;2732;52.092;11.556;2023-11-19T11:22:18;12.60;99.90
5419;DHT22;2732;52.092;11.556;2023-11-19T11:27:42;12.60;99.90
5419;DHT22;2732;52.092;11.556;2023-11-19T11:38:49;12.70;99.90
5419;DHT22;2732;52.092;11.556;2023-11-19T11:43:53;12.90;99.90
5419;DHT22;2732;52.092;11.556;2023-11-19T11:48:57;13.10;99.90
5419;DHT22;2732;52.092;11.556;2023-11-19T11:53:59;13.20;99.90
5419;DHT22;2732;52.092;11.556;2023-11-19T11:59:02;13.30;99.90
5419;DHT22;2732;52.092;11.556;2023-11-19T12:04:04;13.40;99.90
5419;DHT22;2732;52.092;11.556;2023-11-19T12:09:05;13.50;99.90
5419;DHT22;2732;52.092;11.556;2023-11-19T12:14:07;13.50;99.90
5419;DHT22;2732;52.092;11.556;2023-11-19T12:19:08;13.40;99.90
5419;DHT22;2732;52.092;11.556;2023-11-19T12:24:09;13.40;99.90
5419;DHT22;2732;52.092;11.556;2023-11-19T12:29:11;13.40;99.90
5419;DHT22;2732;52.092;11.556;2023-11-19T12:34:12;13.40;99.90
5419;DHT22;2732;52.092;11.556;2023-11-19T12:39:13;13.40;99.90
5419;DHT22;2732;52.092;11.556;2023-11-19T12:44:14;13.30;99.90
5419;DHT22;2732;52.092;11.556;2023-11-19T12:49:16;13.20;99.90
5419;DHT22;2732;52.092;11.556;2023-11-19T12:54:16;13.10;99.90
5419;DHT22;2732;52.092;11.556;2023-11-19T12:59:18;13.10;99.90
5419;DHT22;2732;52.092;11.556;2023-11-19T13:04:19;13.10;99.90
5419;DHT22;2732;52.092;11.556;2023-11-19T13:14:37;13.00;99.90
5419;DHT22;2732;52.092;11.556;2023-11-19T13:19:38;12.90;99.90
5419;DHT22;2732;52.092;11.556;2023-11-19T13:24:39;12.90;99.90
5419;DHT22;2732;52.092;11.556;2023-11-19T13:29:40;12.90;99.90
5419;DHT22;2732;52.092;11.556;2023-11-19T13:34:41;12.90;99.90
5419;DHT22;2732;52.092;11.556;2023-11-19T13:39:42;13.00;99.90
5419;DHT22;2732;52.092;11.556;2023-11-19T13:44:43;13.00;99.90
5419;DHT22;2732;52.092;11.556;2023-11-19T13:49:44;13.00;99.90
5419;DHT22;2732;52.092;11.556;2023-11-19T13:54:45;12.90;99.90
5419;DHT22;2732;52.092;11.556;2023-11-19T13:59:46;12.80;99.90
5419;DHT22;2732;52.092;11.556;2023-11-19T14:04:47;12.70;99.90
5419;DHT22;2732;52.092;11.556;2023-11-19T14:09:47;12.60;99.90
5419;DHT22;2732;52.092;11.556;2023-11-19T14:14:51;12.60;99.90
5419;DHT22;2732;52.092;11.556;2023-11-19T14:19:52;12.60;99.90
5419;DHT22;2732;52.092;11.556;2023-11-19T14:24:54;12.50;99.90
5419;DHT22;2732;52.092;11.556;2023-11-19T14:29:55;12.40;99.90
5419;DHT22;2732;52.092;11.556;2023-11-19T14:34:56;12.40;99.90
5419;DHT22;2732;52.092;11.556;2023-11-19T14:39:57;12.30;99.90
5419;DHT22;2732;52.092;11.556;2023-11-19T14:44:58;12.30;99.90
5419;DHT22;2732;52.092;11.556;2023-11-19T14:49:59;12.20;99.90
5419;DHT22;2732;52.092;11.556;2023-11-19T14:55:00;12.10;99.90
5419;DHT22;2732;52.092;11.556;2023-11-19T15:00:00;12.10;99.90
5419;DHT22;2732;52.092;11.556;2023-11-19T15:05:01;12.00;99.90
5419;DHT22;2732;52.092;11.556;2023-11-19T15:10:04;12.00;99.90
5419;DHT22;2732;52.092;11.556;2023-11-19T15:15:10;11.90;99.90
5419;DHT22;2732;52.092;11.556;2023-11-19T15:20:13;11.80;99.90
5419;DHT22;2732;52.092;11.556;2023-11-19T15:25:18;11.80;99.90
5419;DHT22;2732;52.092;11.556;2023-11-19T15:30:19;11.70;99.90
5419;DHT22;2732;52.092;11.556;2023-11-19T15:35:19;11.70;99.90
5419;DHT22;2732;52.092;11.556;2023-11-19T15:40:20;11.60;99.90
5419;DHT22;2732;52.092;11.556;2023-11-19T15:45:21;11.50;99.90
5419;DHT22;2732;52.092;11.556;2023-11-19T15:50:24;11.50;99.90
5419;DHT22;2732;52.092;11.556;2023-11-19T15:55:25;11.40;99.90
5419;DHT22;2732;52.092;11.556;2023-11-19T16:00:26;11.30;99.90
5419;DHT22;2732;52.092;11.556;2023-11-19T16:05:27;11.20;99.90
5419;DHT22;2732;52.092;11.556;2023-11-19T16:10:28;11.20;99.90
5419;DHT22;2732;52.092;11.556;2023-11-19T16:15:29;11.10;99.90
5419;DHT22;2732;52.092;11.556;2023-11-19T16:20:30;11.00;99.90
5419;DHT22;2732;52.092;11.556;2023-11-19T16:25:34;11.00;99.90
5419;DHT22;2732;52.092;11.556;2023-11-19T16:30:37;10.90;99.90
5419;DHT22;2732;52.092;11.556;2023-11-19T16:35:38;10.90;99.90
5419;DHT22;2732;52.092;11.556;2023-11-19T16:40:39;10.80;99.90
5419;DHT22;2732;52.092;11.556;2023-11-19T16:45:40;10.80;99.90
5419;DHT22;2732;52.092;11.556;2023-11-19T16:50:41;10.80;99.90
5419;DHT22;2732;52.092;11.556;2023-11-19T16:55:41;10.80;99.90
5419;DHT22;2732;52.092;11.556;2023-11-19T17:00:42;10.70;99.90
5419;DHT22;2732;52.092;11.556;2023-11-19T17:05:43;10.70;99.90
5419;DHT22;2732;52.092;11.556;2023-11-19T17:10:44;10.70;99.90
5419;DHT22;2732;52.092;11.556;2023-11-19T17:15:45;10.70;99.90
5419;DHT22;2732;52.092;11.556;2023-11-19T17:20:46;10.70;99.90
5419;DHT22;2732;52.092;11.556;2023-11-19T17:25:46;10.60;99.90
5419;DHT22;2732;52.092;11.556;2023-11-19T17:30:48;10.60;99.90
5419;DHT22;2732;52.092;11.556;2023-11-19T17:35:48;10.60;99.90
5419;DHT22;2732;52.092;11.556;2023-11-19T17:40:49;10.50;99.90
5419;DHT22;2732;52.092;11.556;2023-11-19T17:45:50;10.50;99.90
5419;DHT22;2732;52.092;11.556;2023-11-19T17:50:51;10.40;99.90
5419;DHT22;2732;52.092;11.556;2023-11-19T17:55:55;10.40;99.90
5419;DHT22;2732;52.092;11.556;2023-11-19T18:00:57;10.40;99.90
5419;DHT22;2732;52.092;11.556;2023-11-19T18:05:58;10.40;99.90
5419;DHT22;2732;52.092;11.556;2023-11-19T18:10:58;10.30;99.90
5419;DHT22;2732;52.092;11.556;2023-11-19T18:15:59;10.30;99.90
5419;DHT22;2732;52.092;11.556;2023-11-19T18:20:59;10.30;99.90
5419;DHT22;2732;52.092;11.556;2023-11-19T18:26:00;10.20;99.90
5419;DHT22;2732;52.092;11.556;2023-11-19T18:31:01;10.20;99.90
5419;DHT22;2732;52.092;11.556;2023-11-19T18:36:04;10.20;99.90
5419;DHT22;2732;52.092;11.556;2023-11-19T18:41:05;10.20;99.90
5419;DHT22;2732;52.092;11.556;2023-11-19T18:46:06;10.10;99.90
5419;DHT22;2732;52.092;11.556;2023-11-19T18:51:08;10.10;99.90
5419;DHT22;2732;52.092;11.556;2023-11-19T18:56:14;10.10;99.90
5419;DHT22;2732;52.092;11.556;2023-11-19T19:01:15;10.10;99.90
5419;DHT22;2732;52.092;11.556;2023-11-19T19:06:17;10.10;99.90
5419;DHT22;2732;52.092;11.556;2023-11-19T19:11:18;10.10;99.90
5419;DHT22;2732;52.092;11.556;2023-11-19T19:16:19;10.10;99.90
5419;DHT22;2732;52.092;11.556;2023-11-19T19:21:19;10.00;99.90
5419;DHT22;2732;52.092;11.556;2023-11-19T19:26:20;10.00;99.90
5419;DHT22;2732;52.092;11.556;2023-11-19T19:31:21;10.00;99.90
5419;DHT22;2732;52.092;11.556;2023-11-19T19:36:22;10.00;99.90
5419;DHT22;2732;52.092;11.556;2023-11-19T19:41:23;10.00;99.90
5419;DHT22;2732;52.092;11.556;2023-11-19T19:46:24;10.00;99.90
5419;DHT22;2732;52.092;11.556;2023-11-19T19:51:24;9.90;99.90
5419;DHT22;2732;52.092;11.556;2023-11-19T19:56:25;9.90;99.90
5419;DHT22;2732;52.092;11.556;2023-11-19T20:01:26;9.90;99.90
5419;DHT22;2732;52.092;11.556;2023-11-19T20:06:29;9.90;99.90
5419;DHT22;2732;52.092;11.556;2023-11-19T20:11:37;9.90;99.90
5419;DHT22;2732;52.092;11.556;2023-11-19T20:16:38;9.90;99.90
5419;DHT22;2732;52.092;11.556;2023-11-19T20:21:39;9.90;99.90
5419;DHT22;2732;52.092;11.556;2023-11-19T20:26:39;9.90;99.90
5419;DHT22;2732;52.092;11.556;2023-11-19T20:31:41;9.90;99.90
5419;DHT22;2732;52.092;11.556;2023-11-19T20:36:44;9.90;99.90
5419;DHT22;2732;52.092;11.556;2023-11-19T20:41:45;9.90;99.90
5419;DHT22;2732;52.092;11.556;2023-11-19T20:46:45;9.90;99.90
5419;DHT22;2732;52.092;11.556;2023-11-19T20:51:47;9.90;99.90
5419;DHT22;2732;52.092;11.556;2023-11-19T20:56:48;9.90;99.90
5419;DHT22;2732;52.092;11.556;2023-11-19T21:01:49;9.90;99.90
5419;DHT22;2732;52.092;11.556;2023-11-19T21:06:50;9.90;99.90
5419;DHT22;2732;52.092;11.556;2023-11-19T21:11:51;9.90;99.90
5419;DHT22;2732;52.092;11.556;2023-11-19T21:16:51;9.80;99.90
5419;DHT22;2732;52.092;11.556;2023-11-19T21:21:53;9.80;99.90
5419;DHT22;2732;52.092;11.556;2023-11-19T21:26:53;9.80;99.90
5419;DHT22;2732;52.092;11.556;2023-11-19T21:31:54;9.80;99.90
5419;DHT22;2732;52.092;11.556;2023-11-19T21:36:55;9.80;99.90
5419;DHT22;2732;52.092;11.556;2023-11-19T21:41:55;9.80;99.90
5419;DHT22;2732;52.092;11.556;2023-11-19T21:46:57;9.80;99.90
5419;DHT22;2732;52.092;11.556;2023-11-19T21:51:59;9.80;99.90
5419;DHT22;2732;52.092;11.556;2023-11-19T21:56:59;9.80;99.90
5419;DHT22;2732;52.092;11.556;2023-11-19T22:02:00;9.80;99.90
5419;DHT22;2732;52.092;11.556;2023-11-19T22:07:02;9.70;99.90
5419;DHT22;2732;52.092;11.556;2023-11-19T22:12:03;9.70;99.90
5419;DHT22;2732;52.092;11.556;2023-11-19T22:17:04;9.70;99.90
5419;DHT22;2732;52.092;11.556;2023-11-19T22:22:04;9.70;99.90
5419;DHT22;2732;52.092;11.556;2023-11-19T22:27:06;9.70;99.90
5419;DHT22;2732;52.092;11.556;2023-11-19T22:32:07;9.70;99.90
5419;DHT22;2732;52.092;11.556;2023-11-19T22:37:07;9.60;99.90
5419;DHT22;2732;52.092;11.556;2023-11-19T22:42:08;9.60;99.90
5419;DHT22;2732;52.092;11.556;2023-11-19T22:47:09;9.60;99.90
5419;DHT22;2732;52.092;11.556;2023-11-19T22:52:10;9.60;99.90
5419;DHT22;2732;52.092;11.556;2023-11-19T22:57:10;9.60;99.90
5419;DHT22;2732;52.092;11.556;2023-11-19T23:02:11;9.60;99.90
5419;DHT22;2732;52.092;11.556;2023-11-19T23:07:12;9.60;99.90
5419;DHT22;2732;52.092;11.556;2023-11-19T23:12:12;9.60;99.90
5419;DHT22;2732;52.092;11.556;2023-11-19T23:17:13;9.60;99.90
5419;DHT22;2732;52.092;11.556;2023-11-19T23:22:17;9.60;99.90
5419;DHT22;2732;52.092;11.556;2023-11-19T23:27:17;9.60;99.90
5419;DHT22;2732;52.092;11.556;2023-11-19T23:32:18;9.60;99.90
5419;DHT22;2732;52.092;11.556;2023-11-19T23:37:19;9.60;99.90
5419;DHT22;2732;52.092;11.556;2023-11-19T23:42:19;9.60;99.90
5419;DHT22;2732;52.092;11.556;2023-11-19T23:47:20;9.50;99.90
5419;DHT22;2732;52.092;11.556;2023-11-19T23:52:21;9.60;99.90
5419;DHT22;2732;52.092;11.556;2023-11-19T23:57:21;9.60;99.90
